Startpagina
METAR-TAF:

METAR-TAF

Vliegvelden :

Luchthaven Ambouli Internationaal

Djibouti, Djibouti

breedte: 11-33N, lengte: 043-10E, hoogte: 49 m

Actueel weer

Dit bericht is 4 uur en het 47 minuten geleden gemaakt, om 09:00 UTC
Wind 13 kt uit het oosten
Temperatuur 33°C
Vochtigheid 59%
Druk 1012 hPa
Zicht 10 km of meer
Weinig wolken op 2300 ft

METAR: HDAM 260900Z 09013KT 9999 FEW023 33/24 Q1012

Tijdstip: 16:47 (13:47 UTC)

Verwachting

Dit bericht is 2 uur en het 47 minuten geleden gemaakt, om 11:00 UTC
Verwachting geldig van 26 om 12 UTC tot 27 om 12 UTC
Wind 10 kt uit het oosten
Zicht 10 km of meer
Verspreide wolken op 2000 ft
Wijzigt naar
van 26 om 15 UTC tot 26 om 18 UTC
Wind 3 kt uit variabele richting
Verspreide wolken op 2000 ft
Wijzigt naar
van 27 om 00 UTC tot 27 om 06 UTC
Wind 10 kt uit het oosten
Verspreide wolken op 2300 ft

TAF: HDAM 261100Z 2612/2712 08010KT 9999 SCT020 BECMG 2615/2618 VRB03KT SCT020 BECMG 2700/2706 10010KT SCT023 SCT30

Waarnemingen en weersverwachtingen van meer dan 4000 vliegvelden (METAR en TAF).

De beschikbare stations zijn de gele en rode punten op de kaart.

Ga met uw muis naar het station om de naam te zien.

Klik dan om waarnemingen en weersverwachtingen te zien.

kaart wijzigen: klik op de groene knoppen met een zwart kruis om in te zoomen, op de groene knop met een streepje om uit te zoomen of op de groene pijlen voor aangrenzende kaarten.


METAR-TAF: